createdAt,value
2023-02-04T00:04:04.670Z,10.70
2023-02-04T00:07:01.420Z,10.90
2023-02-04T00:11:17.338Z,11.40
2023-02-04T00:14:36.568Z,10.30
2023-02-04T00:17:23.436Z,12.10
2023-02-04T00:20:11.132Z,13.20
2023-02-04T00:22:57.759Z,12.90
2023-02-04T00:25:44.427Z,13.60
2023-02-04T00:28:32.271Z,13.10
2023-02-04T00:31:20.277Z,12.80
2023-02-04T00:34:07.155Z,13.00
2023-02-04T00:36:53.643Z,12.80
2023-02-04T00:41:22.665Z,11.20
2023-02-04T00:45:17.904Z,10.70
2023-02-04T00:48:05.148Z,13.60
2023-02-04T00:50:53.180Z,13.70
2023-02-04T00:53:40.690Z,13.80
2023-02-04T00:56:27.325Z,14.10
2023-02-04T00:59:14.480Z,14.30
2023-02-04T01:02:01.168Z,14.70
2023-02-04T01:04:47.897Z,14.00
2023-02-04T01:07:34.860Z,14.10
2023-02-04T01:10:21.680Z,12.80
2023-02-04T01:13:09.394Z,13.10
2023-02-04T01:15:55.863Z,12.90
2023-02-04T01:18:42.548Z,13.20
2023-02-04T01:21:29.329Z,12.00
2023-02-04T01:24:15.959Z,12.30
2023-02-04T01:27:03.554Z,12.60
2023-02-04T01:29:49.923Z,12.30
2023-02-04T01:32:36.778Z,12.00
2023-02-04T01:35:23.415Z,12.50
2023-02-04T01:38:09.886Z,13.20
2023-02-04T01:40:57.991Z,13.60
2023-02-04T01:43:45.885Z,14.70
2023-02-04T01:46:36.014Z,14.90
2023-02-04T01:49:22.866Z,13.30
2023-02-04T01:52:11.534Z,12.50
2023-02-04T01:54:57.920Z,12.20
2023-02-04T01:58:12.484Z,13.50
2023-02-04T02:00:59.382Z,13.10
2023-02-04T02:03:45.796Z,13.30
2023-02-04T02:06:32.427Z,12.30
2023-02-04T02:09:19.575Z,12.00
2023-02-04T02:12:06.267Z,11.70
2023-02-04T02:14:52.956Z,11.60
2023-02-04T02:17:40.713Z,11.00
2023-02-04T02:20:29.754Z,11.50
2023-02-04T02:23:22.714Z,10.90
2023-02-04T02:26:11.154Z,10.80
2023-02-04T02:28:57.973Z,11.20
2023-02-04T02:31:44.496Z,11.40
2023-02-04T02:38:55.490Z,10.60
2023-02-04T02:41:42.094Z,10.80
2023-02-04T02:44:29.715Z,10.10
2023-02-04T02:47:19.431Z,10.30
2023-02-04T02:54:43.254Z,10.20
2023-02-04T02:57:29.914Z,9.70
2023-02-04T03:00:24.105Z,11.60
2023-02-04T03:03:20.220Z,9.60
2023-02-04T03:06:15.302Z,8.80
2023-02-04T03:09:04.912Z,8.40
2023-02-04T03:11:51.396Z,8.40
2023-02-04T03:14:39.140Z,9.30
2023-02-04T03:17:25.735Z,8.60
2023-02-04T03:20:16.379Z,7.90
2023-02-04T03:23:03.638Z,9.60
2023-02-04T03:25:52.662Z,8.60
2023-02-04T03:28:41.033Z,7.90
2023-02-04T03:31:28.042Z,8.10
2023-02-04T03:34:14.391Z,8.70
2023-02-04T03:37:01.439Z,9.50
2023-02-04T03:39:47.812Z,8.00
2023-02-04T03:42:34.956Z,8.10
2023-02-04T03:45:23.715Z,7.60
2023-02-04T03:48:10.327Z,8.50
2023-02-04T03:50:56.494Z,8.50
2023-02-04T03:53:42.747Z,7.50
2023-02-04T03:56:29.533Z,7.60
2023-02-04T03:59:16.238Z,7.20
2023-02-04T04:02:02.531Z,7.40
2023-02-04T04:04:49.217Z,8.20
2023-02-04T04:07:35.661Z,7.90
2023-02-04T04:10:22.059Z,7.50
2023-02-04T04:13:34.602Z,7.20
2023-02-04T04:16:21.055Z,8.20
2023-02-04T04:19:07.493Z,8.10
2023-02-04T04:21:55.916Z,8.30
2023-02-04T04:24:43.000Z,8.50
2023-02-04T04:27:30.242Z,7.40
2023-02-04T04:30:17.080Z,8.10
2023-02-04T04:33:03.736Z,8.50
2023-02-04T04:35:50.081Z,7.90
2023-02-04T04:38:36.499Z,8.50
2023-02-04T04:41:22.842Z,8.30
2023-02-04T04:44:09.559Z,9.20
2023-02-04T04:46:56.204Z,8.70
2023-02-04T04:49:43.174Z,9.60
2023-02-04T04:52:29.626Z,10.00
2023-02-04T04:59:36.270Z,9.00
2023-02-04T05:02:22.717Z,10.50
2023-02-04T05:05:11.153Z,9.10
2023-02-04T05:07:57.790Z,8.70
2023-02-04T05:10:44.221Z,9.50
2023-02-04T05:13:30.779Z,10.50
2023-02-04T05:16:18.326Z,9.60
2023-02-04T05:19:05.105Z,10.20
2023-02-04T05:26:17.126Z,9.80
2023-02-04T05:29:10.425Z,9.90
2023-02-04T05:31:57.101Z,10.40
2023-02-04T05:34:44.187Z,10.00
2023-02-04T05:37:31.185Z,9.90
2023-02-04T05:40:18.003Z,9.70
2023-02-04T05:43:05.101Z,9.10
2023-02-04T05:45:51.291Z,9.10
2023-02-04T05:48:40.110Z,10.20
2023-02-04T05:51:26.820Z,9.90
2023-02-04T05:54:19.651Z,8.80
2023-02-04T05:57:07.622Z,9.40
2023-02-04T05:59:53.984Z,8.90
2023-02-04T06:02:41.098Z,9.60
2023-02-04T06:05:27.738Z,8.30
2023-02-04T06:08:15.908Z,9.00
2023-02-04T06:11:02.122Z,8.30
2023-02-04T06:13:48.882Z,8.60
2023-02-04T06:16:35.512Z,8.00
2023-02-04T06:19:21.825Z,8.20
2023-02-04T06:22:08.575Z,9.30
2023-02-04T06:24:54.935Z,9.70
2023-02-04T06:27:41.286Z,10.20
2023-02-04T06:30:27.889Z,9.80
2023-02-04T06:33:16.615Z,8.80
2023-02-04T06:36:04.230Z,7.90
2023-02-04T06:38:50.806Z,7.80
2023-02-04T06:41:37.573Z,9.40
2023-02-04T06:44:23.759Z,8.30
2023-02-04T06:47:09.884Z,8.50
2023-02-04T06:49:56.063Z,9.50
2023-02-04T06:52:42.339Z,10.10
2023-02-04T06:55:30.124Z,10.80
2023-02-04T06:58:16.513Z,9.60
2023-02-04T07:01:03.253Z,9.70
2023-02-04T07:03:49.510Z,9.40
2023-02-04T07:06:36.023Z,7.80
2023-02-04T07:09:23.266Z,7.50
2023-02-04T07:12:09.963Z,6.80
2023-02-04T07:14:56.062Z,6.90
2023-02-04T07:17:42.590Z,7.40
2023-02-04T07:20:29.124Z,6.20
2023-02-04T07:23:15.569Z,6.20
2023-02-04T07:26:02.415Z,6.40
2023-02-04T07:28:56.754Z,6.40
2023-02-04T07:31:43.774Z,6.90
2023-02-04T07:34:30.631Z,7.00
2023-02-04T07:37:17.603Z,6.10
2023-02-04T07:40:04.954Z,6.10
2023-02-04T07:42:51.305Z,6.40
2023-02-04T07:45:37.839Z,6.60
2023-02-04T07:48:24.392Z,7.90
2023-02-04T07:51:10.751Z,6.80
2023-02-04T07:53:57.293Z,5.60
2023-02-04T07:56:46.480Z,6.80
2023-02-04T07:59:33.126Z,5.80
2023-02-04T08:02:19.481Z,5.20
2023-02-04T08:05:15.702Z,4.80
2023-02-04T08:08:03.036Z,4.60
2023-02-04T08:10:52.458Z,4.90
2023-02-04T08:13:39.009Z,5.10
2023-02-04T08:17:36.013Z,5.50
2023-02-04T08:21:37.682Z,6.40
2023-02-04T08:24:24.197Z,5.90
2023-02-04T08:27:11.726Z,6.30
2023-02-04T08:30:04.946Z,4.90
2023-02-04T08:32:51.682Z,4.80
2023-02-04T08:35:38.387Z,5.20
2023-02-04T08:39:16.259Z,4.00
2023-02-04T08:42:04.222Z,4.30
2023-02-04T08:44:55.410Z,4.30
2023-02-04T08:49:23.057Z,7.10
2023-02-04T08:52:10.196Z,4.40
2023-02-04T08:54:56.923Z,4.30
2023-02-04T08:57:44.244Z,5.50
2023-02-04T09:00:32.533Z,4.00
2023-02-04T09:03:38.459Z,2.80
2023-02-04T09:06:25.186Z,2.70
2023-02-04T09:09:13.108Z,3.20
2023-02-04T09:12:02.010Z,3.50
2023-02-04T09:14:48.600Z,3.30
2023-02-04T09:17:35.833Z,2.80
2023-02-04T09:20:22.822Z,3.20
2023-02-04T09:23:10.712Z,3.70
2023-02-04T09:25:58.659Z,3.00
2023-02-04T09:28:45.423Z,3.50
2023-02-04T09:31:34.160Z,3.80
2023-02-04T09:34:20.741Z,3.80
2023-02-04T09:39:29.317Z,2.70
2023-02-04T09:43:30.640Z,2.40
2023-02-04T11:14:02.634Z,4.10
2023-02-04T11:17:00.919Z,4.60
2023-02-04T12:12:09.008Z,3.70
2023-02-04T12:15:19.062Z,5.10
2023-02-04T12:18:15.691Z,4.50
2023-02-04T12:24:53.378Z,4.30
2023-02-04T12:46:20.426Z,4.70
2023-02-04T12:50:07.003Z,3.80
2023-02-04T12:53:57.482Z,3.60
2023-02-04T13:00:01.520Z,5.10
2023-02-04T13:12:25.245Z,2.80
2023-02-04T13:26:09.001Z,3.00
2023-02-04T13:28:56.159Z,3.20
2023-02-04T13:31:58.118Z,3.70
2023-02-04T13:34:44.490Z,2.70
2023-02-04T13:37:30.854Z,3.20
2023-02-04T13:40:27.581Z,3.10
2023-02-04T13:58:14.930Z,2.10
2023-02-04T14:26:39.420Z,3.10
2023-02-04T14:40:29.359Z,2.70
2023-02-04T14:44:00.244Z,2.60
2023-02-04T14:47:33.103Z,2.40
2023-02-04T14:51:44.038Z,4.20
2023-02-04T14:54:30.566Z,3.10
2023-02-04T14:57:17.207Z,3.60
2023-02-04T15:00:06.874Z,3.90
2023-02-04T15:02:54.668Z,3.60
2023-02-04T15:05:52.853Z,3.00
2023-02-04T15:09:48.478Z,4.20
2023-02-04T15:24:39.744Z,4.70
2023-02-04T15:27:38.112Z,3.10
2023-02-04T15:30:24.688Z,4.20
2023-02-04T15:33:18.093Z,3.70
2023-02-04T15:36:04.566Z,4.10
2023-02-04T15:39:25.047Z,4.40
2023-02-04T15:45:00.815Z,5.40
2023-02-04T15:48:57.866Z,4.80
2023-02-04T15:52:55.056Z,7.40
2023-02-04T16:07:20.443Z,5.20
2023-02-04T16:10:22.100Z,6.20
2023-02-04T16:13:58.822Z,5.70
2023-02-04T16:17:39.460Z,5.50
2023-02-04T16:21:08.774Z,6.00
2023-02-04T16:25:06.961Z,8.20
2023-02-04T16:29:08.247Z,8.10
2023-02-04T16:43:07.141Z,5.10
2023-02-04T16:45:53.685Z,7.40
2023-02-04T16:48:40.114Z,7.90
2023-02-04T16:51:26.876Z,8.20
2023-02-04T16:54:14.385Z,8.20
2023-02-04T16:57:18.805Z,7.00
2023-02-04T17:01:19.597Z,9.20
2023-02-04T17:05:39.873Z,9.90
2023-02-04T17:09:14.837Z,7.50
2023-02-04T17:22:57.198Z,10.60
2023-02-04T17:26:11.382Z,9.20
2023-02-04T17:28:57.855Z,11.40
2023-02-04T17:31:44.482Z,12.70
2023-02-04T17:34:31.308Z,13.20
2023-02-04T17:37:17.792Z,12.00
2023-02-04T17:40:05.564Z,13.00
2023-02-04T17:42:52.243Z,12.90
2023-02-04T17:45:38.905Z,12.20
2023-02-04T17:48:25.522Z,13.00
2023-02-04T17:51:13.828Z,12.00
2023-02-04T17:54:00.000Z,12.70
2023-02-04T17:56:52.391Z,13.80
2023-02-04T17:59:39.906Z,11.80
2023-02-04T18:02:33.956Z,13.70
2023-02-04T18:05:24.291Z,12.20
2023-02-04T18:08:19.535Z,13.20
2023-02-04T18:11:15.624Z,14.40
2023-02-04T18:14:12.030Z,12.90
2023-02-04T18:16:59.597Z,14.20
2023-02-04T18:24:19.521Z,13.40
2023-02-04T18:27:30.463Z,16.00
2023-02-04T18:30:26.430Z,15.60
2023-02-04T18:33:20.814Z,15.70
2023-02-04T18:36:12.106Z,15.00
2023-02-04T18:38:59.673Z,14.50
2023-02-04T18:41:51.283Z,14.70
2023-02-04T18:44:38.579Z,13.40
2023-02-04T18:47:36.014Z,13.90
2023-02-04T18:50:33.194Z,16.30
2023-02-04T18:53:22.319Z,15.70
2023-02-04T18:56:15.925Z,16.00
2023-02-04T18:59:10.207Z,17.70
2023-02-04T19:01:56.426Z,17.60
2023-02-04T19:04:43.850Z,18.40
2023-02-04T19:07:34.840Z,19.00
2023-02-04T19:10:28.963Z,21.00
2023-02-04T19:13:21.599Z,19.90
2023-02-04T19:16:17.679Z,22.50
2023-02-04T19:19:29.437Z,23.00
2023-02-04T19:22:40.627Z,22.60
2023-02-04T19:25:56.996Z,20.70
2023-02-04T19:28:44.621Z,22.40
2023-02-04T19:31:35.012Z,21.30
2023-02-04T19:34:24.380Z,23.10
2023-02-04T19:37:43.749Z,21.00
2023-02-04T19:40:37.610Z,22.30
2023-02-04T19:43:33.776Z,21.40
2023-02-04T19:46:26.746Z,22.10
2023-02-04T19:49:28.826Z,22.60
2023-02-04T19:52:33.885Z,21.40
2023-02-04T19:55:27.397Z,23.10
2023-02-04T19:58:19.620Z,22.20
2023-02-04T20:01:11.376Z,22.90
2023-02-04T20:04:00.259Z,23.80
2023-02-04T20:06:47.952Z,25.10
2023-02-04T20:09:35.462Z,27.00
2023-02-04T20:12:22.376Z,24.30
2023-02-04T20:15:18.878Z,25.10
2023-02-04T20:18:23.982Z,25.20
2023-02-04T20:21:11.635Z,24.80
2023-02-04T20:23:58.101Z,25.40
2023-02-04T20:26:45.440Z,24.80
2023-02-04T20:29:34.575Z,25.00
2023-02-04T20:32:26.443Z,25.40
2023-02-04T20:35:18.909Z,26.90
2023-02-04T20:38:16.524Z,26.30
2023-02-04T20:41:15.286Z,26.70
2023-02-04T20:44:02.613Z,27.10
2023-02-04T20:46:48.871Z,25.50
2023-02-04T20:49:40.863Z,25.60
2023-02-04T20:52:46.094Z,26.80
2023-02-04T20:55:34.548Z,28.40
2023-02-04T20:58:24.614Z,27.90
2023-02-04T21:01:29.054Z,27.50
2023-02-04T21:04:29.353Z,28.60
2023-02-04T21:07:19.141Z,27.70
2023-02-04T21:10:06.028Z,27.30
2023-02-04T21:12:52.547Z,29.00
2023-02-04T21:15:43.163Z,29.40
2023-02-04T21:18:50.977Z,27.50
2023-02-04T21:21:51.746Z,28.60
2023-02-04T21:24:56.024Z,27.80
2023-02-04T21:27:53.739Z,29.80
2023-02-04T21:30:55.928Z,26.80
2023-02-04T21:34:01.048Z,28.20
2023-02-04T21:36:50.793Z,28.80
2023-02-04T21:39:43.121Z,24.70
2023-02-04T21:43:03.273Z,27.00
2023-02-04T21:45:59.342Z,31.40
2023-02-04T21:48:46.530Z,29.20
2023-02-04T21:51:33.310Z,26.60
2023-02-04T21:54:20.194Z,28.50
2023-02-04T21:57:06.803Z,34.20
2023-02-04T21:59:54.565Z,34.50
2023-02-04T22:02:43.447Z,27.30
2023-02-04T22:05:33.123Z,27.00
2023-02-04T22:08:19.954Z,24.50
2023-02-04T22:11:06.533Z,29.50
2023-02-04T22:13:54.530Z,26.00
2023-02-04T22:16:41.313Z,28.60
2023-02-04T22:19:28.280Z,26.30
2023-02-04T22:22:15.200Z,23.40
2023-02-04T22:25:02.411Z,28.90
2023-02-04T22:27:48.919Z,38.00
2023-02-04T22:30:35.982Z,31.40
2023-02-04T22:33:22.547Z,25.50
2023-02-04T22:36:12.300Z,23.10
2023-02-04T22:38:58.956Z,22.80
2023-02-04T22:41:45.648Z,20.90
2023-02-04T22:44:32.629Z,19.40
2023-02-04T22:47:19.319Z,18.60
2023-02-04T22:50:06.452Z,20.70
2023-02-04T22:52:52.811Z,21.20
2023-02-04T22:55:39.881Z,18.90
2023-02-04T22:58:26.735Z,18.20
2023-02-04T23:01:13.576Z,19.30
2023-02-04T23:04:00.427Z,19.10
2023-02-04T23:06:50.326Z,18.70
2023-02-04T23:09:37.009Z,18.50
2023-02-04T23:12:24.295Z,19.80
2023-02-04T23:15:12.750Z,20.70
2023-02-04T23:18:00.626Z,23.50
2023-02-04T23:20:47.385Z,22.70
2023-02-04T23:23:34.031Z,23.40
2023-02-04T23:26:21.154Z,23.20
2023-02-04T23:29:07.771Z,22.50
2023-02-04T23:31:55.926Z,20.50
2023-02-04T23:34:42.398Z,20.20
2023-02-04T23:37:29.186Z,23.00
2023-02-04T23:40:15.950Z,22.40
2023-02-04T23:43:02.391Z,20.50
2023-02-04T23:45:49.235Z,20.10
2023-02-04T23:48:35.918Z,20.10
2023-02-04T23:51:22.663Z,20.60
2023-02-04T23:54:09.146Z,22.10
2023-02-04T23:56:56.083Z,19.00
2023-02-04T23:59:42.634Z,18.60
